createdAt,value
2018-12-22T00:00:14.594Z,-2.1
2018-12-22T00:05:12.172Z,-1.6
2018-12-22T00:10:08.817Z,-2.1
2018-12-22T00:15:06.283Z,-1.6
2018-12-22T00:20:03.723Z,-1.6
2018-12-22T00:25:01.307Z,-2.1
2018-12-22T00:29:58.032Z,-1.6
2018-12-22T00:34:55.486Z,-1.6
2018-12-22T00:39:52.932Z,-1.6
2018-12-22T00:44:50.302Z,-1.6
2018-12-22T00:49:47.222Z,-1.6
2018-12-22T00:54:44.734Z,-1.6
2018-12-22T00:59:41.769Z,-1.7
2018-12-22T01:04:39.237Z,-2.2
2018-12-22T01:09:36.244Z,-2.2
2018-12-22T01:14:33.549Z,-2.2
2018-12-22T01:19:30.817Z,-2.2
2018-12-22T01:24:28.093Z,-1.7
2018-12-22T01:29:24.654Z,-1.7
2018-12-22T01:34:22.028Z,-1.7
2018-12-22T01:39:19.442Z,-2.2
2018-12-22T01:44:16.735Z,-1.8
2018-12-22T01:49:13.077Z,-2.2
2018-12-22T01:54:10.650Z,-2.3
2018-12-22T01:59:08.042Z,-2.2
2018-12-22T02:04:05.231Z,-1.8
2018-12-22T02:09:02.488Z,-2.3
2018-12-22T02:13:59.339Z,-1.8
2018-12-22T02:18:56.647Z,-2.3
2018-12-22T02:23:53.759Z,-2.3
2018-12-22T02:28:56.474Z,-1.8
2018-12-22T02:33:53.162Z,-1.8
2018-12-22T02:38:49.985Z,-2.4
2018-12-22T02:43:47.509Z,-1.9
2018-12-22T02:48:45.066Z,-2.1
2018-12-22T02:53:42.503Z,-2.4
2018-12-22T02:58:39.831Z,-2.4
2018-12-22T03:03:37.295Z,-1.9
2018-12-22T03:08:34.648Z,-2.4
2018-12-22T03:13:32.132Z,-2.4
2018-12-22T03:18:29.368Z,-2.5
2018-12-22T03:23:26.864Z,-2.5
2018-12-22T03:28:23.782Z,-2.5
2018-12-22T03:33:21.385Z,-2
2018-12-22T03:38:18.563Z,-2.5
2018-12-22T03:43:15.505Z,-2
2018-12-22T03:48:12.877Z,-2
2018-12-22T03:53:10.288Z,-2
2018-12-22T03:58:07.320Z,-2
2018-12-22T04:03:04.995Z,-2
2018-12-22T04:08:02.416Z,-2.6
2018-12-22T04:12:59.970Z,-2.1
2018-12-22T04:17:57.197Z,-2.1
2018-12-22T04:22:54.723Z,-2.1
2018-12-22T04:27:52.362Z,-2.1
2018-12-22T04:32:49.934Z,-2.1
2018-12-22T04:37:47.400Z,-2.1
2018-12-22T04:42:44.666Z,-2.6
2018-12-22T04:47:41.551Z,-2.1
2018-12-22T04:52:39.164Z,-2.2
2018-12-22T04:57:35.964Z,-2.2
2018-12-22T05:02:33.336Z,-2.2
2018-12-22T05:07:30.292Z,-2.2
2018-12-22T05:12:27.856Z,-2.2
2018-12-22T05:17:25.249Z,-2.2
2018-12-22T05:22:22.610Z,-2.7
2018-12-22T05:27:19.507Z,-2.2
2018-12-22T05:32:17.054Z,-2.2
2018-12-22T05:37:14.553Z,-2.7
2018-12-22T05:42:11.843Z,-2.2
2018-12-22T05:47:09.271Z,-2.2
2018-12-22T05:52:06.762Z,-2.7
2018-12-22T05:57:04.266Z,-2.3
2018-12-22T06:02:01.413Z,-2.8
2018-12-22T06:06:58.128Z,-2.8
2018-12-22T06:11:54.963Z,-2.8
2018-12-22T06:16:52.718Z,-2.3
2018-12-22T06:21:50.141Z,-2.8
2018-12-22T06:26:47.579Z,-2.8
2018-12-22T06:31:44.989Z,-2.3
2018-12-22T06:36:42.202Z,-2.9
2018-12-22T06:41:39.570Z,-2.9
2018-12-22T06:46:37.035Z,-2.4
2018-12-22T06:51:34.307Z,-2.4
2018-12-22T06:56:31.895Z,-2.4
2018-12-22T07:01:29.172Z,-2.4
2018-12-22T07:06:26.620Z,-2.4
2018-12-22T07:11:23.998Z,-2.4
2018-12-22T07:16:20.931Z,-2.4
2018-12-22T07:21:18.550Z,-2.4
2018-12-22T07:26:15.560Z,-2.5
2018-12-22T07:31:12.664Z,-2.5
2018-12-22T07:36:10.151Z,-2.5
2018-12-22T07:41:07.515Z,-2.5
2018-12-22T07:46:05.018Z,-2.5
2018-12-22T07:51:02.494Z,-2.5
2018-12-22T07:55:59.489Z,-2.5
2018-12-22T08:00:56.829Z,-2.5
2018-12-22T08:05:54.195Z,-3
2018-12-22T08:10:51.666Z,-2.5
2018-12-22T08:15:48.528Z,-2.9
2018-12-22T08:20:46.113Z,-3
2018-12-22T08:25:43.706Z,-2.9
2018-12-22T08:30:43.597Z,-2.5
2018-12-22T08:35:40.684Z,-2.9
2018-12-22T08:40:38.113Z,-2.9
2018-12-22T08:45:35.451Z,-2.5
2018-12-22T08:50:32.978Z,-2.5
2018-12-22T08:55:30.097Z,-2.9
2018-12-22T09:00:27.075Z,-2.4
2018-12-22T09:05:24.401Z,-2.9
2018-12-22T09:10:21.925Z,-2.4
2018-12-22T09:15:19.360Z,-3.4
2018-12-22T09:20:16.802Z,-2.9
2018-12-22T09:25:14.664Z,-2.9
2018-12-22T09:30:11.874Z,-2.4
2018-12-22T16:11:42.303Z,-0.6
2018-12-22T16:16:39.962Z,-0.1
2018-12-22T16:21:37.584Z,-0.1
2018-12-22T16:26:34.718Z,-0.6
2018-12-22T16:31:32.112Z,-0.5
2018-12-22T16:36:29.522Z,-0.1
2018-12-22T16:41:27.031Z,-0.1
2018-12-22T16:46:24.645Z,0
2018-12-22T16:51:21.872Z,0
2018-12-22T16:56:19.511Z,0
2018-12-22T17:01:17.091Z,-0.5
2018-12-22T17:06:14.681Z,0
2018-12-22T17:11:11.647Z,0
2018-12-22T17:16:09.171Z,-0.5
2018-12-22T17:21:06.725Z,-0.5
2018-12-22T17:26:04.135Z,0
2018-12-22T17:31:01.139Z,0
2018-12-22T17:35:58.705Z,0
2018-12-22T17:40:56.406Z,-0.5
2018-12-22T17:45:53.450Z,-0.5
2018-12-22T17:50:50.941Z,-0.5
2018-12-22T17:55:48.199Z,-0.5
2018-12-22T18:00:45.746Z,-0.5
2018-12-22T18:05:43.258Z,0
2018-12-22T18:10:41.126Z,0
2018-12-22T18:15:38.717Z,-0.5
2018-12-22T18:20:36.298Z,-0.5
2018-12-22T18:25:33.725Z,-0.5
2018-12-22T18:30:30.870Z,-0.5
2018-12-22T18:35:28.628Z,-0.5
2018-12-22T18:40:26.194Z,-0.5
2018-12-22T18:45:23.797Z,-0.5
2018-12-22T18:50:21.422Z,0
2018-12-22T18:55:18.873Z,-0.5
2018-12-22T19:00:16.009Z,-0.5
2018-12-22T19:05:13.749Z,-0.2
2018-12-22T19:10:10.622Z,-0.5
2018-12-22T19:15:08.296Z,-0.5
2018-12-22T19:20:05.826Z,-0.5
2018-12-22T19:25:03.406Z,-0.5
2018-12-22T19:30:00.422Z,-0.5
2018-12-22T19:34:57.408Z,-0.1
2018-12-22T19:39:54.919Z,-0.6
2018-12-22T19:44:52.213Z,-0.6
2018-12-22T19:49:49.697Z,-0.6
2018-12-22T19:54:46.894Z,-0.5
2018-12-22T19:59:44.280Z,-0.5
2018-12-22T20:04:41.842Z,-0.6
2018-12-22T20:09:38.619Z,-0.5
2018-12-22T20:14:35.691Z,-0.5
2018-12-22T20:19:33.339Z,-0.5
2018-12-22T20:24:31.018Z,-0.6
2018-12-22T20:29:28.582Z,-0.1
2018-12-22T20:34:26.096Z,-0.1
2018-12-22T20:39:23.033Z,-0.6
2018-12-22T20:44:20.150Z,-0.6
2018-12-22T20:49:17.205Z,-0.6
2018-12-22T20:54:14.534Z,-0.6
2018-12-22T20:59:12.646Z,-0.1
2018-12-22T21:04:09.389Z,-0.6
2018-12-22T21:09:06.485Z,-0.1
2018-12-22T21:14:03.922Z,-0.6
2018-12-22T21:19:01.364Z,-0.1
2018-12-22T21:23:58.516Z,-0.6
2018-12-22T21:28:55.719Z,-0.6
2018-12-22T21:33:52.949Z,-0.6
2018-12-22T21:38:50.469Z,-0.6
2018-12-22T21:43:47.556Z,-0.6
2018-12-22T21:48:44.640Z,-0.6
2018-12-22T21:53:42.184Z,-0.6
2018-12-22T21:58:39.450Z,-0.6
2018-12-22T22:03:37.101Z,-0.1
2018-12-22T22:08:34.511Z,-0.1
2018-12-22T22:13:31.555Z,-0.6
2018-12-22T22:18:28.789Z,-0.6
2018-12-22T22:23:25.894Z,-0.6
2018-12-22T22:28:23.365Z,-0.6
2018-12-22T22:33:20.029Z,-0.6
2018-12-22T22:38:17.556Z,-0.6
2018-12-22T22:43:15.122Z,-0.6
2018-12-22T22:48:12.305Z,-0.6
2018-12-22T22:53:09.961Z,-0.6
2018-12-22T22:58:07.331Z,-0.6
2018-12-22T23:03:04.447Z,-0.6
2018-12-22T23:08:01.960Z,-0.6
2018-12-22T23:12:59.288Z,-0.6
2018-12-22T23:17:55.986Z,-0.6
2018-12-22T23:22:53.383Z,-0.6
2018-12-22T23:27:50.812Z,-0.6
2018-12-22T23:32:48.284Z,-0.6
2018-12-22T23:37:45.597Z,-0.1
2018-12-22T23:42:42.826Z,-0.1
2018-12-22T23:47:39.943Z,-0.6
2018-12-22T23:52:37.479Z,-0.6
2018-12-22T23:57:35.015Z,-0.5
